sensor_id;sensor_type;location;lat;lon;timestamp;temperature;humidity
74294;DHT22;64044;59.904;10.738;2023-05-07T00:02:22;8.40;37.10
74294;DHT22;64044;59.904;10.738;2023-05-07T00:04:48;8.40;36.90
74294;DHT22;64044;59.904;10.738;2023-05-07T00:07:14;8.40;37.10
74294;DHT22;64044;59.904;10.738;2023-05-07T00:09:40;8.40;37.30
74294;DHT22;64044;59.904;10.738;2023-05-07T00:12:07;8.30;37.40
74294;DHT22;64044;59.904;10.738;2023-05-07T00:14:32;8.30;37.30
74294;DHT22;64044;59.904;10.738;2023-05-07T00:16:58;8.30;37.30
74294;DHT22;64044;59.904;10.738;2023-05-07T00:19:24;8.20;37.40
74294;DHT22;64044;59.904;10.738;2023-05-07T00:21:49;8.20;37.40
74294;DHT22;64044;59.904;10.738;2023-05-07T00:24:15;8.20;37.50
74294;DHT22;64044;59.904;10.738;2023-05-07T00:26:41;8.10;37.80
74294;DHT22;64044;59.904;10.738;2023-05-07T00:29:07;8.10;38.00
74294;DHT22;64044;59.904;10.738;2023-05-07T00:31:32;8.10;38.10
74294;DHT22;64044;59.904;10.738;2023-05-07T00:33:58;8.10;38.20
74294;DHT22;64044;59.904;10.738;2023-05-07T00:36:24;8.00;38.30
74294;DHT22;64044;59.904;10.738;2023-05-07T00:38:51;8.00;38.50
74294;DHT22;64044;59.904;10.738;2023-05-07T00:41:17;8.00;38.60
74294;DHT22;64044;59.904;10.738;2023-05-07T00:43:43;7.90;38.50
74294;DHT22;64044;59.904;10.738;2023-05-07T00:46:08;7.90;38.60
74294;DHT22;64044;59.904;10.738;2023-05-07T00:48:35;7.90;38.80
74294;DHT22;64044;59.904;10.738;2023-05-07T00:51:01;7.90;39.00
74294;DHT22;64044;59.904;10.738;2023-05-07T00:53:26;7.80;38.70
74294;DHT22;64044;59.904;10.738;2023-05-07T00:55:52;7.80;38.80
74294;DHT22;64044;59.904;10.738;2023-05-07T00:58:19;7.70;38.70
74294;DHT22;64044;59.904;10.738;2023-05-07T01:00:45;7.70;38.70
74294;DHT22;64044;59.904;10.738;2023-05-07T01:03:11;7.70;38.80
74294;DHT22;64044;59.904;10.738;2023-05-07T01:05:36;7.70;38.90
74294;DHT22;64044;59.904;10.738;2023-05-07T01:08:02;7.60;39.40
74294;DHT22;64044;59.904;10.738;2023-05-07T01:10:29;7.60;39.30
74294;DHT22;64044;59.904;10.738;2023-05-07T01:12:57;7.60;39.40
74294;DHT22;64044;59.904;10.738;2023-05-07T01:15:24;7.50;39.60
74294;DHT22;64044;59.904;10.738;2023-05-07T01:17:49;7.50;39.40
74294;DHT22;64044;59.904;10.738;2023-05-07T01:20:15;7.40;39.80
74294;DHT22;64044;59.904;10.738;2023-05-07T01:22:41;7.40;40.10
74294;DHT22;64044;59.904;10.738;2023-05-07T01:25:08;7.40;40.30
74294;DHT22;64044;59.904;10.738;2023-05-07T01:27:34;7.30;40.40
74294;DHT22;64044;59.904;10.738;2023-05-07T01:30:02;7.30;40.40
74294;DHT22;64044;59.904;10.738;2023-05-07T01:32:45;7.20;40.30
74294;DHT22;64044;59.904;10.738;2023-05-07T01:35:17;7.20;40.90
74294;DHT22;64044;59.904;10.738;2023-05-07T01:37:44;7.10;40.70
74294;DHT22;64044;59.904;10.738;2023-05-07T01:40:10;7.20;40.80
74294;DHT22;64044;59.904;10.738;2023-05-07T01:42:36;7.10;40.80
74294;DHT22;64044;59.904;10.738;2023-05-07T01:45:02;7.10;41.00
74294;DHT22;64044;59.904;10.738;2023-05-07T01:47:29;7.00;41.00
74294;DHT22;64044;59.904;10.738;2023-05-07T01:49:56;7.00;41.00
74294;DHT22;64044;59.904;10.738;2023-05-07T01:52:22;7.00;41.10
74294;DHT22;64044;59.904;10.738;2023-05-07T01:54:48;7.00;41.20
74294;DHT22;64044;59.904;10.738;2023-05-07T01:57:13;7.00;41.40
74294;DHT22;64044;59.904;10.738;2023-05-07T01:59:39;7.00;41.20
74294;DHT22;64044;59.904;10.738;2023-05-07T02:02:05;7.00;41.40
74294;DHT22;64044;59.904;10.738;2023-05-07T02:04:30;6.90;41.00
74294;DHT22;64044;59.904;10.738;2023-05-07T02:06:56;6.90;41.40
74294;DHT22;64044;59.904;10.738;2023-05-07T02:09:22;6.90;41.60
74294;DHT22;64044;59.904;10.738;2023-05-07T02:11:48;6.90;41.40
74294;DHT22;64044;59.904;10.738;2023-05-07T02:14:14;6.90;41.70
74294;DHT22;64044;59.904;10.738;2023-05-07T02:16:41;6.90;41.50
74294;DHT22;64044;59.904;10.738;2023-05-07T02:19:07;6.90;41.70
74294;DHT22;64044;59.904;10.738;2023-05-07T02:21:32;6.90;42.00
74294;DHT22;64044;59.904;10.738;2023-05-07T02:23:58;6.90;42.10
74294;DHT22;64044;59.904;10.738;2023-05-07T02:26:24;6.80;41.90
74294;DHT22;64044;59.904;10.738;2023-05-07T02:28:50;6.80;42.20
74294;DHT22;64044;59.904;10.738;2023-05-07T02:31:16;6.80;42.10
74294;DHT22;64044;59.904;10.738;2023-05-07T02:33:41;6.80;42.20
74294;DHT22;64044;59.904;10.738;2023-05-07T02:36:11;6.80;42.40
74294;DHT22;64044;59.904;10.738;2023-05-07T02:38:37;6.70;42.50
74294;DHT22;64044;59.904;10.738;2023-05-07T02:41:03;6.70;42.40
74294;DHT22;64044;59.904;10.738;2023-05-07T02:43:29;6.70;42.60
74294;DHT22;64044;59.904;10.738;2023-05-07T02:46:08;6.70;42.70
74294;DHT22;64044;59.904;10.738;2023-05-07T02:48:34;6.60;43.50
74294;DHT22;64044;59.904;10.738;2023-05-07T02:51:00;6.60;42.80
74294;DHT22;64044;59.904;10.738;2023-05-07T02:53:26;6.60;42.90
74294;DHT22;64044;59.904;10.738;2023-05-07T02:55:55;6.50;43.10
74294;DHT22;64044;59.904;10.738;2023-05-07T02:58:21;6.60;43.40
74294;DHT22;64044;59.904;10.738;2023-05-07T03:00:47;6.50;43.30
74294;DHT22;64044;59.904;10.738;2023-05-07T03:03:13;6.50;43.20
74294;DHT22;64044;59.904;10.738;2023-05-07T03:05:39;6.50;43.30
74294;DHT22;64044;59.904;10.738;2023-05-07T03:08:05;6.40;43.60
74294;DHT22;64044;59.904;10.738;2023-05-07T03:10:31;6.40;43.80
74294;DHT22;64044;59.904;10.738;2023-05-07T03:12:56;6.40;43.80
74294;DHT22;64044;59.904;10.738;2023-05-07T03:15:22;6.40;43.70
74294;DHT22;64044;59.904;10.738;2023-05-07T03:17:48;6.40;43.90
74294;DHT22;64044;59.904;10.738;2023-05-07T03:20:14;6.40;43.80
74294;DHT22;64044;59.904;10.738;2023-05-07T03:22:40;6.40;44.10
74294;DHT22;64044;59.904;10.738;2023-05-07T03:25:06;6.30;44.20
74294;DHT22;64044;59.904;10.738;2023-05-07T03:27:32;6.30;44.10
74294;DHT22;64044;59.904;10.738;2023-05-07T03:29:58;6.30;44.40
74294;DHT22;64044;59.904;10.738;2023-05-07T03:32:23;6.30;44.50
74294;DHT22;64044;59.904;10.738;2023-05-07T03:34:49;6.30;44.60
74294;DHT22;64044;59.904;10.738;2023-05-07T03:37:15;6.30;44.60
74294;DHT22;64044;59.904;10.738;2023-05-07T03:39:41;6.30;44.80
74294;DHT22;64044;59.904;10.738;2023-05-07T03:42:06;6.30;45.20
74294;DHT22;64044;59.904;10.738;2023-05-07T03:44:32;6.30;45.00
74294;DHT22;64044;59.904;10.738;2023-05-07T03:46:58;6.30;45.40
74294;DHT22;64044;59.904;10.738;2023-05-07T03:49:23;6.30;45.20
74294;DHT22;64044;59.904;10.738;2023-05-07T03:51:49;6.30;45.40
74294;DHT22;64044;59.904;10.738;2023-05-07T03:54:15;6.30;45.40
74294;DHT22;64044;59.904;10.738;2023-05-07T03:56:41;6.40;45.40
74294;DHT22;64044;59.904;10.738;2023-05-07T03:59:06;6.40;46.20
74294;DHT22;64044;59.904;10.738;2023-05-07T04:01:32;6.40;45.70
74294;DHT22;64044;59.904;10.738;2023-05-07T04:03:58;6.40;45.40
74294;DHT22;64044;59.904;10.738;2023-05-07T04:06:23;6.40;45.30
74294;DHT22;64044;59.904;10.738;2023-05-07T04:08:49;6.40;45.20
74294;DHT22;64044;59.904;10.738;2023-05-07T04:11:15;6.40;45.20
74294;DHT22;64044;59.904;10.738;2023-05-07T04:13:41;6.40;45.00
74294;DHT22;64044;59.904;10.738;2023-05-07T04:16:06;6.40;45.00
74294;DHT22;64044;59.904;10.738;2023-05-07T04:18:32;6.40;45.20
74294;DHT22;64044;59.904;10.738;2023-05-07T04:20:58;6.40;46.10
74294;DHT22;64044;59.904;10.738;2023-05-07T04:23:23;6.40;45.70
74294;DHT22;64044;59.904;10.738;2023-05-07T04:25:50;6.40;45.50
74294;DHT22;64044;59.904;10.738;2023-05-07T04:28:16;6.50;45.90
74294;DHT22;64044;59.904;10.738;2023-05-07T04:30:41;6.50;45.40
74294;DHT22;64044;59.904;10.738;2023-05-07T04:33:07;6.50;45.60
74294;DHT22;64044;59.904;10.738;2023-05-07T04:35:33;6.50;45.60
74294;DHT22;64044;59.904;10.738;2023-05-07T04:37:59;6.60;45.50
74294;DHT22;64044;59.904;10.738;2023-05-07T04:40:24;6.60;45.40
74294;DHT22;64044;59.904;10.738;2023-05-07T04:42:50;6.60;45.30
74294;DHT22;64044;59.904;10.738;2023-05-07T04:45:16;6.60;45.30
74294;DHT22;64044;59.904;10.738;2023-05-07T04:47:42;6.60;45.20
74294;DHT22;64044;59.904;10.738;2023-05-07T04:50:08;6.70;45.50
74294;DHT22;64044;59.904;10.738;2023-05-07T04:52:34;6.70;45.50
74294;DHT22;64044;59.904;10.738;2023-05-07T04:55:00;6.80;45.40
74294;DHT22;64044;59.904;10.738;2023-05-07T04:57:26;6.80;45.90
74294;DHT22;64044;59.904;10.738;2023-05-07T04:59:53;6.90;46.20
74294;DHT22;64044;59.904;10.738;2023-05-07T05:02:19;6.90;45.60
74294;DHT22;64044;59.904;10.738;2023-05-07T05:04:45;6.90;45.50
74294;DHT22;64044;59.904;10.738;2023-05-07T05:07:11;7.00;45.80
74294;DHT22;64044;59.904;10.738;2023-05-07T05:09:36;7.00;45.50
74294;DHT22;64044;59.904;10.738;2023-05-07T05:12:02;7.10;45.40
74294;DHT22;64044;59.904;10.738;2023-05-07T05:14:29;7.10;45.40
74294;DHT22;64044;59.904;10.738;2023-05-07T05:16:54;7.20;45.60
74294;DHT22;64044;59.904;10.738;2023-05-07T05:19:20;7.20;45.40
74294;DHT22;64044;59.904;10.738;2023-05-07T05:21:46;7.30;45.50
74294;DHT22;64044;59.904;10.738;2023-05-07T05:24:11;7.30;45.30
74294;DHT22;64044;59.904;10.738;2023-05-07T05:26:37;7.40;45.20
74294;DHT22;64044;59.904;10.738;2023-05-07T05:29:03;7.40;45.40
74294;DHT22;64044;59.904;10.738;2023-05-07T05:31:29;7.50;45.50
74294;DHT22;64044;59.904;10.738;2023-05-07T05:33:55;7.60;45.40
74294;DHT22;64044;59.904;10.738;2023-05-07T05:36:20;7.60;45.00
74294;DHT22;64044;59.904;10.738;2023-05-07T05:38:46;7.60;45.10
74294;DHT22;64044;59.904;10.738;2023-05-07T05:41:12;7.70;44.90
74294;DHT22;64044;59.904;10.738;2023-05-07T05:43:37;7.80;44.60
74294;DHT22;64044;59.904;10.738;2023-05-07T05:46:03;7.90;44.60
74294;DHT22;64044;59.904;10.738;2023-05-07T05:48:29;7.90;44.50
74294;DHT22;64044;59.904;10.738;2023-05-07T05:50:55;8.00;44.30
74294;DHT22;64044;59.904;10.738;2023-05-07T05:53:21;8.00;44.20
74294;DHT22;64044;59.904;10.738;2023-05-07T05:55:47;8.10;44.30
74294;DHT22;64044;59.904;10.738;2023-05-07T05:58:13;8.20;44.40
74294;DHT22;64044;59.904;10.738;2023-05-07T06:00:38;8.20;45.10
74294;DHT22;64044;59.904;10.738;2023-05-07T06:03:04;8.30;45.80
74294;DHT22;64044;59.904;10.738;2023-05-07T06:05:30;8.30;46.50
74294;DHT22;64044;59.904;10.738;2023-05-07T06:07:56;8.30;46.60
74294;DHT22;64044;59.904;10.738;2023-05-07T06:10:21;8.40;46.60
74294;DHT22;64044;59.904;10.738;2023-05-07T06:12:47;8.40;46.90
74294;DHT22;64044;59.904;10.738;2023-05-07T06:15:13;8.40;47.10
74294;DHT22;64044;59.904;10.738;2023-05-07T06:17:38;8.40;47.40
74294;DHT22;64044;59.904;10.738;2023-05-07T06:20:04;8.50;47.90
74294;DHT22;64044;59.904;10.738;2023-05-07T06:22:30;8.50;48.10
74294;DHT22;64044;59.904;10.738;2023-05-07T06:24:56;8.50;48.00
74294;DHT22;64044;59.904;10.738;2023-05-07T06:27:22;8.50;48.10
74294;DHT22;64044;59.904;10.738;2023-05-07T06:29:48;8.60;48.20
74294;DHT22;64044;59.904;10.738;2023-05-07T06:32:14;8.60;48.00
74294;DHT22;64044;59.904;10.738;2023-05-07T06:34:40;8.70;47.90
74294;DHT22;64044;59.904;10.738;2023-05-07T06:37:07;8.70;47.80
74294;DHT22;64044;59.904;10.738;2023-05-07T06:39:33;8.70;47.70
74294;DHT22;64044;59.904;10.738;2023-05-07T06:42:00;8.70;47.60
74294;DHT22;64044;59.904;10.738;2023-05-07T06:44:26;8.80;47.90
74294;DHT22;64044;59.904;10.738;2023-05-07T06:46:51;8.80;47.90
74294;DHT22;64044;59.904;10.738;2023-05-07T06:49:17;8.90;47.90
74294;DHT22;64044;59.904;10.738;2023-05-07T06:51:43;8.90;47.70
74294;DHT22;64044;59.904;10.738;2023-05-07T06:54:08;9.00;47.90
74294;DHT22;64044;59.904;10.738;2023-05-07T06:56:34;9.00;48.00
74294;DHT22;64044;59.904;10.738;2023-05-07T06:59:01;9.00;48.00
74294;DHT22;64044;59.904;10.738;2023-05-07T07:01:27;9.10;48.70
74294;DHT22;64044;59.904;10.738;2023-05-07T07:03:53;9.20;49.10
74294;DHT22;64044;59.904;10.738;2023-05-07T07:06:18;9.10;48.60
74294;DHT22;64044;59.904;10.738;2023-05-07T07:08:44;9.20;48.60
74294;DHT22;64044;59.904;10.738;2023-05-07T07:11:10;9.20;48.30
74294;DHT22;64044;59.904;10.738;2023-05-07T07:13:36;9.20;48.20
74294;DHT22;64044;59.904;10.738;2023-05-07T07:16:02;9.20;48.30
74294;DHT22;64044;59.904;10.738;2023-05-07T07:18:28;9.20;48.30
74294;DHT22;64044;59.904;10.738;2023-05-07T07:20:54;9.30;48.60
74294;DHT22;64044;59.904;10.738;2023-05-07T07:23:20;9.30;48.80
74294;DHT22;64044;59.904;10.738;2023-05-07T07:25:45;9.30;48.80
74294;DHT22;64044;59.904;10.738;2023-05-07T07:28:11;9.30;48.60
74294;DHT22;64044;59.904;10.738;2023-05-07T07:30:37;9.40;48.30
74294;DHT22;64044;59.904;10.738;2023-05-07T07:33:03;9.40;48.50
74294;DHT22;64044;59.904;10.738;2023-05-07T07:35:33;9.40;48.40
74294;DHT22;64044;59.904;10.738;2023-05-07T07:37:59;9.50;48.80
74294;DHT22;64044;59.904;10.738;2023-05-07T07:40:25;9.50;48.60
74294;DHT22;64044;59.904;10.738;2023-05-07T07:42:51;9.50;48.40
74294;DHT22;64044;59.904;10.738;2023-05-07T07:45:17;9.60;48.70
74294;DHT22;64044;59.904;10.738;2023-05-07T07:47:43;9.60;48.70
74294;DHT22;64044;59.904;10.738;2023-05-07T07:50:09;9.60;48.80
74294;DHT22;64044;59.904;10.738;2023-05-07T07:52:34;9.70;48.70
74294;DHT22;64044;59.904;10.738;2023-05-07T07:55:00;9.70;48.70
74294;DHT22;64044;59.904;10.738;2023-05-07T07:57:26;9.80;48.70
74294;DHT22;64044;59.904;10.738;2023-05-07T07:59:52;9.80;48.90
74294;DHT22;64044;59.904;10.738;2023-05-07T08:02:17;9.90;48.80
74294;DHT22;64044;59.904;10.738;2023-05-07T08:04:43;9.90;48.60
74294;DHT22;64044;59.904;10.738;2023-05-07T08:07:10;10.00;48.40
74294;DHT22;64044;59.904;10.738;2023-05-07T08:09:39;10.00;48.00
74294;DHT22;64044;59.904;10.738;2023-05-07T08:12:06;10.10;48.00
74294;DHT22;64044;59.904;10.738;2023-05-07T08:14:32;10.10;48.00
74294;DHT22;64044;59.904;10.738;2023-05-07T08:16:58;10.20;47.60
74294;DHT22;64044;59.904;10.738;2023-05-07T08:19:23;10.20;47.90
74294;DHT22;64044;59.904;10.738;2023-05-07T08:21:49;10.30;48.10
74294;DHT22;64044;59.904;10.738;2023-05-07T08:24:16;10.30;48.20
74294;DHT22;64044;59.904;10.738;2023-05-07T08:26:42;10.40;48.20
74294;DHT22;64044;59.904;10.738;2023-05-07T08:29:07;10.50;48.60
74294;DHT22;64044;59.904;10.738;2023-05-07T08:31:33;10.50;48.40
74294;DHT22;64044;59.904;10.738;2023-05-07T08:33:59;10.60;48.60
74294;DHT22;64044;59.904;10.738;2023-05-07T08:36:25;10.60;48.70
74294;DHT22;64044;59.904;10.738;2023-05-07T08:38:52;10.60;48.60
74294;DHT22;64044;59.904;10.738;2023-05-07T08:41:18;10.70;49.10
74294;DHT22;64044;59.904;10.738;2023-05-07T08:43:48;10.80;49.20
74294;DHT22;64044;59.904;10.738;2023-05-07T08:46:16;10.80;49.30
74294;DHT22;64044;59.904;10.738;2023-05-07T08:49:07;10.90;49.50
74294;DHT22;64044;59.904;10.738;2023-05-07T08:51:33;10.90;48.30
74294;DHT22;64044;59.904;10.738;2023-05-07T08:53:59;11.00;48.50
74294;DHT22;64044;59.904;10.738;2023-05-07T08:56:26;11.00;48.80
74294;DHT22;64044;59.904;10.738;2023-05-07T08:58:52;11.10;48.70
74294;DHT22;64044;59.904;10.738;2023-05-07T09:01:22;11.10;48.60
74294;DHT22;64044;59.904;10.738;2023-05-07T09:03:49;11.10;48.30
74294;DHT22;64044;59.904;10.738;2023-05-07T09:06:15;11.20;48.20
74294;DHT22;64044;59.904;10.738;2023-05-07T09:08:43;11.30;48.20
74294;DHT22;64044;59.904;10.738;2023-05-07T09:11:09;11.40;47.80
74294;DHT22;64044;59.904;10.738;2023-05-07T09:13:35;11.40;47.30
74294;DHT22;64044;59.904;10.738;2023-05-07T09:16:15;11.50;46.90
74294;DHT22;64044;59.904;10.738;2023-05-07T09:18:41;11.60;46.10
74294;DHT22;64044;59.904;10.738;2023-05-07T09:21:10;11.60;45.80
74294;DHT22;64044;59.904;10.738;2023-05-07T09:23:36;11.70;45.30
74294;DHT22;64044;59.904;10.738;2023-05-07T09:26:01;11.70;45.10
74294;DHT22;64044;59.904;10.738;2023-05-07T09:28:27;11.90;45.20
74294;DHT22;64044;59.904;10.738;2023-05-07T09:30:53;11.90;45.20
74294;DHT22;64044;59.904;10.738;2023-05-07T09:33:18;12.00;45.00
74294;DHT22;64044;59.904;10.738;2023-05-07T09:35:44;12.10;45.20
74294;DHT22;64044;59.904;10.738;2023-05-07T09:38:10;12.20;45.60
74294;DHT22;64044;59.904;10.738;2023-05-07T09:40:36;12.30;45.80
74294;DHT22;64044;59.904;10.738;2023-05-07T09:43:13;12.30;45.90
74294;DHT22;64044;59.904;10.738;2023-05-07T09:45:38;12.40;46.10
74294;DHT22;64044;59.904;10.738;2023-05-07T09:48:05;12.60;46.60
74294;DHT22;64044;59.904;10.738;2023-05-07T09:50:36;12.70;45.70
74294;DHT22;64044;59.904;10.738;2023-05-07T09:53:04;12.80;45.20
74294;DHT22;64044;59.904;10.738;2023-05-07T09:55:30;12.90;44.40
74294;DHT22;64044;59.904;10.738;2023-05-07T09:57:57;13.00;44.80
74294;DHT22;64044;59.904;10.738;2023-05-07T10:00:25;13.20;45.20
74294;DHT22;64044;59.904;10.738;2023-05-07T10:02:57;13.30;44.40
74294;DHT22;64044;59.904;10.738;2023-05-07T10:05:22;13.50;43.70
74294;DHT22;64044;59.904;10.738;2023-05-07T10:07:49;13.60;43.40
74294;DHT22;64044;59.904;10.738;2023-05-07T10:10:16;13.70;43.10
74294;DHT22;64044;59.904;10.738;2023-05-07T10:12:42;13.90;43.30
74294;DHT22;64044;59.904;10.738;2023-05-07T10:15:09;14.00;43.10
74294;DHT22;64044;59.904;10.738;2023-05-07T10:17:39;14.20;42.70
74294;DHT22;64044;59.904;10.738;2023-05-07T10:20:07;14.30;42.20
74294;DHT22;64044;59.904;10.738;2023-05-07T10:22:45;14.40;42.50
74294;DHT22;64044;59.904;10.738;2023-05-07T10:25:22;14.50;43.60
74294;DHT22;64044;59.904;10.738;2023-05-07T10:27:49;14.60;43.40
74294;DHT22;64044;59.904;10.738;2023-05-07T10:32:55;14.80;43.30
74294;DHT22;64044;59.904;10.738;2023-05-07T10:35:25;15.00;42.40
74294;DHT22;64044;59.904;10.738;2023-05-07T10:37:52;15.10;42.10
74294;DHT22;64044;59.904;10.738;2023-05-07T10:40:20;15.20;43.00
74294;DHT22;64044;59.904;10.738;2023-05-07T10:43:00;15.30;42.70
74294;DHT22;64044;59.904;10.738;2023-05-07T10:45:27;15.40;41.80
74294;DHT22;64044;59.904;10.738;2023-05-07T10:48:12;15.50;41.40
74294;DHT22;64044;59.904;10.738;2023-05-07T10:50:39;15.60;41.20
74294;DHT22;64044;59.904;10.738;2023-05-07T10:58:29;16.00;41.00
74294;DHT22;64044;59.904;10.738;2023-05-07T11:00:59;16.10;39.40
74294;DHT22;64044;59.904;10.738;2023-05-07T11:03:26;16.20;39.30
74294;DHT22;64044;59.904;10.738;2023-05-07T11:06:12;16.40;37.50
74294;DHT22;64044;59.904;10.738;2023-05-07T11:08:57;16.50;36.50
74294;DHT22;64044;59.904;10.738;2023-05-07T11:11:45;16.60;35.90
74294;DHT22;64044;59.904;10.738;2023-05-07T11:14:12;16.80;35.60
74294;DHT22;64044;59.904;10.738;2023-05-07T11:16:38;16.90;36.40
74294;DHT22;64044;59.904;10.738;2023-05-07T11:19:05;17.10;35.90
74294;DHT22;64044;59.904;10.738;2023-05-07T11:21:34;17.30;35.00
74294;DHT22;64044;59.904;10.738;2023-05-07T11:24:01;17.40;33.80
74294;DHT22;64044;59.904;10.738;2023-05-07T11:26:29;17.60;33.30
74294;DHT22;64044;59.904;10.738;2023-05-07T11:28:55;17.80;33.20
74294;DHT22;64044;59.904;10.738;2023-05-07T11:31:26;18.00;32.70
74294;DHT22;64044;59.904;10.738;2023-05-07T11:33:54;18.20;31.50
74294;DHT22;64044;59.904;10.738;2023-05-07T11:36:22;18.40;31.80
74294;DHT22;64044;59.904;10.738;2023-05-07T11:38:48;18.60;31.60
74294;DHT22;64044;59.904;10.738;2023-05-07T11:41:15;18.90;31.80
74294;DHT22;64044;59.904;10.738;2023-05-07T11:43:58;19.20;31.40
74294;DHT22;64044;59.904;10.738;2023-05-07T11:46:24;19.60;29.70
74294;DHT22;64044;59.904;10.738;2023-05-07T11:48:50;20.00;31.00
74294;DHT22;64044;59.904;10.738;2023-05-07T11:51:20;20.40;30.20
74294;DHT22;64044;59.904;10.738;2023-05-07T11:53:46;20.90;29.30
74294;DHT22;64044;59.904;10.738;2023-05-07T11:56:14;21.30;29.70
74294;DHT22;64044;59.904;10.738;2023-05-07T11:58:40;21.80;28.60
74294;DHT22;64044;59.904;10.738;2023-05-07T12:01:10;22.30;28.50
74294;DHT22;64044;59.904;10.738;2023-05-07T12:03:37;22.80;28.20
74294;DHT22;64044;59.904;10.738;2023-05-07T12:06:06;23.30;27.70
74294;DHT22;64044;59.904;10.738;2023-05-07T12:08:32;23.80;26.20
74294;DHT22;64044;59.904;10.738;2023-05-07T12:10:58;24.30;25.90
74294;DHT22;64044;59.904;10.738;2023-05-07T12:13:25;24.70;26.00
74294;DHT22;64044;59.904;10.738;2023-05-07T12:15:55;25.10;24.70
74294;DHT22;64044;59.904;10.738;2023-05-07T12:18:21;25.40;24.60
74294;DHT22;64044;59.904;10.738;2023-05-07T12:20:48;25.70;24.00
74294;DHT22;64044;59.904;10.738;2023-05-07T12:23:14;26.10;24.10
74294;DHT22;64044;59.904;10.738;2023-05-07T12:25:41;26.30;24.00
74294;DHT22;64044;59.904;10.738;2023-05-07T12:28:16;26.40;23.20
74294;DHT22;64044;59.904;10.738;2023-05-07T12:30:47;26.60;23.00
74294;DHT22;64044;59.904;10.738;2023-05-07T12:33:17;26.60;24.00
74294;DHT22;64044;59.904;10.738;2023-05-07T12:35:43;26.70;23.40
74294;DHT22;64044;59.904;10.738;2023-05-07T12:38:11;26.80;23.20
74294;DHT22;64044;59.904;10.738;2023-05-07T12:43:02;27.00;22.70
74294;DHT22;64044;59.904;10.738;2023-05-07T12:45:28;27.10;22.50
74294;DHT22;64044;59.904;10.738;2023-05-07T12:47:54;27.20;22.70
74294;DHT22;64044;59.904;10.738;2023-05-07T12:50:20;27.20;21.80
74294;DHT22;64044;59.904;10.738;2023-05-07T12:52:48;27.30;22.50
74294;DHT22;64044;59.904;10.738;2023-05-07T12:55:16;27.30;22.30
74294;DHT22;64044;59.904;10.738;2023-05-07T12:57:47;27.40;22.00
74294;DHT22;64044;59.904;10.738;2023-05-07T13:00:14;27.30;21.50
74294;DHT22;64044;59.904;10.738;2023-05-07T13:02:41;27.30;21.70
74294;DHT22;64044;59.904;10.738;2023-05-07T13:05:07;27.20;21.70
74294;DHT22;64044;59.904;10.738;2023-05-07T13:07:34;27.20;22.50
74294;DHT22;64044;59.904;10.738;2023-05-07T13:09:59;27.10;22.60
74294;DHT22;64044;59.904;10.738;2023-05-07T13:12:25;27.10;22.00
74294;DHT22;64044;59.904;10.738;2023-05-07T13:14:51;26.90;21.90
74294;DHT22;64044;59.904;10.738;2023-05-07T13:17:16;26.80;22.80
74294;DHT22;64044;59.904;10.738;2023-05-07T13:19:44;26.60;22.80
74294;DHT22;64044;59.904;10.738;2023-05-07T13:22:09;26.40;23.10
74294;DHT22;64044;59.904;10.738;2023-05-07T13:24:36;26.30;22.80
74294;DHT22;64044;59.904;10.738;2023-05-07T13:27:02;26.20;23.20
74294;DHT22;64044;59.904;10.738;2023-05-07T13:29:28;26.00;22.80
74294;DHT22;64044;59.904;10.738;2023-05-07T13:31:58;25.90;22.30
74294;DHT22;64044;59.904;10.738;2023-05-07T13:34:25;25.80;22.60
74294;DHT22;64044;59.904;10.738;2023-05-07T13:36:51;25.80;22.60
74294;DHT22;64044;59.904;10.738;2023-05-07T13:39:17;25.70;22.80
74294;DHT22;64044;59.904;10.738;2023-05-07T13:41:42;25.80;22.90
74294;DHT22;64044;59.904;10.738;2023-05-07T13:44:08;25.80;23.10
74294;DHT22;64044;59.904;10.738;2023-05-07T13:46:34;25.80;22.40
74294;DHT22;64044;59.904;10.738;2023-05-07T13:48:59;25.90;22.80
74294;DHT22;64044;59.904;10.738;2023-05-07T13:51:25;25.90;22.80
74294;DHT22;64044;59.904;10.738;2023-05-07T13:53:51;26.00;23.30
74294;DHT22;64044;59.904;10.738;2023-05-07T13:56:17;26.00;22.60
74294;DHT22;64044;59.904;10.738;2023-05-07T13:58:43;26.10;22.40
74294;DHT22;64044;59.904;10.738;2023-05-07T14:01:09;26.10;22.00
74294;DHT22;64044;59.904;10.738;2023-05-07T14:03:35;26.10;22.70
74294;DHT22;64044;59.904;10.738;2023-05-07T14:06:03;26.30;22.00
74294;DHT22;64044;59.904;10.738;2023-05-07T14:08:29;26.30;21.60
74294;DHT22;64044;59.904;10.738;2023-05-07T14:10:55;26.50;20.90
74294;DHT22;64044;59.904;10.738;2023-05-07T14:13:20;26.60;22.00
74294;DHT22;64044;59.904;10.738;2023-05-07T14:15:46;26.70;22.00
74294;DHT22;64044;59.904;10.738;2023-05-07T14:18:14;26.90;22.00
74294;DHT22;64044;59.904;10.738;2023-05-07T14:20:39;27.00;21.40
74294;DHT22;64044;59.904;10.738;2023-05-07T14:23:05;27.10;21.70
74294;DHT22;64044;59.904;10.738;2023-05-07T14:25:31;27.20;21.40
74294;DHT22;64044;59.904;10.738;2023-05-07T14:27:56;27.20;21.40
74294;DHT22;64044;59.904;10.738;2023-05-07T14:30:22;27.30;20.50
74294;DHT22;64044;59.904;10.738;2023-05-07T14:32:50;27.40;20.80
74294;DHT22;64044;59.904;10.738;2023-05-07T14:35:16;27.40;20.50
74294;DHT22;64044;59.904;10.738;2023-05-07T14:37:42;27.50;22.10
74294;DHT22;64044;59.904;10.738;2023-05-07T14:40:08;27.60;22.50
74294;DHT22;64044;59.904;10.738;2023-05-07T14:42:34;27.70;22.20
74294;DHT22;64044;59.904;10.738;2023-05-07T14:45:00;27.90;22.10
74294;DHT22;64044;59.904;10.738;2023-05-07T14:47:26;28.10;21.30
74294;DHT22;64044;59.904;10.738;2023-05-07T14:49:52;28.40;21.20
74294;DHT22;64044;59.904;10.738;2023-05-07T14:52:18;28.70;21.10
74294;DHT22;64044;59.904;10.738;2023-05-07T14:54:44;29.00;20.40
74294;DHT22;64044;59.904;10.738;2023-05-07T14:57:10;29.20;20.20
74294;DHT22;64044;59.904;10.738;2023-05-07T14:59:39;29.50;20.10
74294;DHT22;64044;59.904;10.738;2023-05-07T15:02:06;29.80;20.00
74294;DHT22;64044;59.904;10.738;2023-05-07T15:04:33;30.20;19.60
74294;DHT22;64044;59.904;10.738;2023-05-07T15:06:59;30.50;19.40
74294;DHT22;64044;59.904;10.738;2023-05-07T15:09:25;30.80;19.20
74294;DHT22;64044;59.904;10.738;2023-05-07T15:11:51;31.00;18.60
74294;DHT22;64044;59.904;10.738;2023-05-07T15:14:17;31.10;18.30
74294;DHT22;64044;59.904;10.738;2023-05-07T15:16:43;31.20;18.40
74294;DHT22;64044;59.904;10.738;2023-05-07T15:19:09;31.30;18.70
74294;DHT22;64044;59.904;10.738;2023-05-07T15:21:34;31.40;18.80
74294;DHT22;64044;59.904;10.738;2023-05-07T15:24:02;31.50;18.50
74294;DHT22;64044;59.904;10.738;2023-05-07T15:26:27;31.60;18.20
74294;DHT22;64044;59.904;10.738;2023-05-07T15:28:53;31.80;17.80
74294;DHT22;64044;59.904;10.738;2023-05-07T15:31:21;31.90;17.60
74294;DHT22;64044;59.904;10.738;2023-05-07T15:33:47;31.90;17.40